Flight Track Log - Related Links

Times and Time Zones

All times are in EDT time to prevent confusion due to time zone crossing. See the BOE1 flight status page for this flight to view local times or setup timezone preferences in your user account.

Time Position Orientation Groundspeed Altitude Reporting Facility
EDT Latitude Longitude Course Direction KTS MPH feet Rate Location/Type
Fri 01:15:58 PM 47.5519 -122.3240 326° Northwest 155 178 1,100  Level Seattle Center
Fri 01:17:08 PM 47.6047 -122.3760 306° West 190 219 3,100 2,140 Climbing Seattle Center
Fri 01:18:07 PM 47.6367 -122.4420 341° North 213 245 5,700 2,950 Climbing Seattle Center
Fri 01:19:08 PM 47.7044 -122.4760 355° North 227 261 9,000 2,550 Climbing Seattle Center
Fri 01:20:07 PM 47.7750 -122.4860 357° North 227 261 10,800 2,118 Climbing Seattle Center
Fri 01:21:07 PM 47.8561 -122.4930 358° North 263 303 13,200 2,380 Climbing Seattle Center
Fri 01:22:08 PM 47.9433 -122.4970 358° North 291 335 15,600 1,388 Climbing Seattle Center
Fri 01:23:08 PM 48.0328 -122.5020 360° North 310 357 16,000 200 Climbing Seattle Center
Fri 01:24:08 PM 48.1222 -122.5030 20° North 310 357 16,000 -450 Level Seattle Center
Fri 01:25:08 PM 48.2064 -122.4580 78° East 310 357 15,100 -500 Descending Seattle Center
Fri 01:26:08 PM 48.2283 -122.3090 108° East 290 334 15,000 -50 Descending Seattle Center
Fri 01:27:07 PM 48.1942 -122.1550 110° East 315 362 15,000 150 Level Seattle Center
Fri 01:28:08 PM 48.1575 -122.0010 109° East 351 404 15,300 198 Climbing Seattle Center
Fri 01:29:08 PM 48.1169 -121.8260 109° East 387 445 15,400 150 Climbing Seattle Center
Fri 01:30:08 PM 48.0819 -121.6730 102° East 395 455 15,600 100 Climbing Seattle Center
Fri 01:31:08 PM 48.0594 -121.5130 97° East 389 448 15,600 -151 Level Seattle Center
Fri 01:32:07 PM 48.0472 -121.3550 93° East 384 442 15,300 -202 Descending Seattle Center
Fri 01:33:07 PM 48.0408 -121.1960 92° East 384 442 15,200  Descending Seattle Center
Fri 01:34:08 PM 48.0364 -121.0380 94° East 384 442 15,300 -50 Climbing Seattle Center
Fri 01:35:07 PM 48.0297 -120.8800 95° East 384 442 15,100 -100 Descending Seattle Center
Fri 01:36:08 PM 48.0206 -120.7340 94° East 389 448 15,100 -50 Level Seattle Center
Fri 01:37:07 PM 48.0133 -120.5640 93° East 394 453 15,000 -50 Descending Seattle Center
Fri 01:38:07 PM 48.0061 -120.3810 95° East 415 478 15,000 50 Level Seattle Center
Fri 01:39:08 PM 47.9944 -120.1950 92° East 435 501 15,100 149 Climbing Seattle Center
Fri 01:40:08 PM 47.9908 -120.0090 95° East 441 507 15,300 46 Climbing Seattle Center
Fri 01:41:19 PM 47.9806 -119.8260 94° East 441 507 15,200  Descending Seattle Center
Fri 01:42:19 PM 47.9700 -119.6060 93° East 441 507 15,300 150 Climbing Seattle Center
Fri 01:43:19 PM 47.9633 -119.4200 96° East 441 507 15,500 -100 Climbing Seattle Center
Fri 01:44:19 PM 47.9503 -119.2380 93° East 441 507 15,100 -248 Descending Seattle Center
Fri 01:45:20 PM 47.9431 -119.0520 94° East 441 507 15,000 -50 Descending Seattle Center
Fri 01:46:19 PM 47.9333 -118.8670 97° East 441 507 15,000  Level Seattle Center
Fri 01:47:20 PM 47.9172 -118.6840 98° East 441 507 15,000 50 Level Seattle Center
Fri 01:48:20 PM 47.8986 -118.4960 100° East 441 507 15,100 50 Climbing Seattle Center
Fri 01:49:19 PM 47.8778 -118.3140 101° East 446 513 15,100 50 Level Seattle Center
Fri 01:50:20 PM 47.8525 -118.1290 99° East 446 513 15,200 100 Climbing Seattle Center
Fri 01:51:19 PM 47.8333 -117.9480 98° East 446 513 15,300 151 Climbing Seattle Center
Fri 01:52:19 PM 47.8156 -117.7630 98° East 446 513 15,500 -50 Climbing Seattle Center
Fri 01:53:19 PM 47.7978 -117.5820 97° East 446 513 15,200 -149 Descending Seattle Center
Fri 01:54:20 PM 47.7817 -117.3970 98° East 446 513 15,200 50 Level Seattle Center
Fri 01:55:19 PM 47.7631 -117.1940 98° East 446 513 15,300 50 Climbing Seattle Center
Fri 01:56:19 PM 47.7461 -117.0040 95° East 446 513 15,300  Level Seattle Center
Fri 01:57:20 PM 47.7356 -116.8230 89° East 446 513 15,300  Level Seattle Center
Fri 01:58:19 PM 47.7369 -116.6410 32° Northeast 439 505 15,300  Level Seattle Center
Fri 01:59:19 PM 47.8244 -116.5610 298° West 326 375 15,300  Level Seattle Center
Fri 02:00:19 PM 47.8739 -116.6980 269° West 190 219 15,300  Level Seattle Center
Fri 02:01:19 PM 47.8719 -116.8770 274° West 285 328 15,300 -50 Level Seattle Center
Fri 02:02:19 PM 47.8803 -117.0530 276° West 357 411 15,200 -50 Descending Seattle Center
Fri 02:03:19 PM 47.8928 -117.2280 276° West 404 465 15,200  Level Seattle Center
Fri 02:04:19 PM 47.9044 -117.3980 275° West 424 488 15,200  Level Seattle Center
Fri 02:05:19 PM 47.9139 -117.5580 276° West 431 496 15,200 -150 Level Seattle Center
Fri 02:06:19 PM 47.9253 -117.7310 277° West 431 496 14,900 -99 Descending Seattle Center
Fri 02:07:20 PM 47.9386 -117.9040 276° West 426 490 15,000 50 Climbing Seattle Center
Fri 02:08:19 PM 47.9517 -118.0800 275° West 421 484 15,000  Level Seattle Center
Fri 02:09:19 PM 47.9625 -118.2530 276° West 426 490 15,000  Level Seattle Center
Fri 02:10:19 PM 47.9747 -118.4230 276° West 421 484 15,000  Level Seattle Center
Fri 02:11:19 PM 47.9872 -118.5990 277° West 421 484 15,000  Level Seattle Center
Fri 02:12:19 PM 48.0011 -118.7720 277° West 421 484 15,000  Level Seattle Center
Fri 02:13:20 PM 48.0150 -118.9460 276° West 421 484 15,000  Level Seattle Center
Fri 02:14:19 PM 48.0267 -119.1220 276° West 421 484 15,000  Level Seattle Center
Fri 02:15:19 PM 48.0400 -119.2990 277° West 421 484 15,000  Level Seattle Center
Fri 02:16:31 PM 48.0531 -119.4690 273° West 421 484 15,000  Level Seattle Center
Fri 02:17:32 PM 48.0597 -119.6800 274° West 421 484 15,000 -50 Level Seattle Center
Fri 02:18:31 PM 48.0681 -119.8570 266° West 426 490 14,900 -50 Descending Seattle Center
Fri 02:19:32 PM 48.0594 -120.0340 198° South 426 490 14,900 50 Level Seattle Center
Fri 02:20:31 PM 47.9428 -120.0890 120° Southeast 368 423 15,000 50 Climbing Seattle Center
Fri 02:21:31 PM 47.8847 -119.9370 92° East 246 283 15,000 99 Level Seattle Center
Fri 02:22:32 PM 47.8808 -119.7550 91° East 301 346 15,200 99 Climbing Seattle Center
Fri 02:23:32 PM 47.8786 -119.5730 91° East 366 421 15,200 -50 Level Seattle Center
Fri 02:24:31 PM 47.8758 -119.3870 93° East 418 481 15,100 -151 Descending Seattle Center
Fri 02:25:31 PM 47.8689 -119.2050 98° East 431 496 14,900 -149 Descending Seattle Center
Fri 02:26:32 PM 47.8514 -119.0220 98° East 436 502 14,800  Descending Seattle Center
Fri 02:27:31 PM 47.8356 -118.8530 93° East 442 509 14,900 100 Climbing Seattle Center
Fri 02:28:32 PM 47.8297 -118.6740 115° Southeast 427 491 15,000 150 Climbing Seattle Center
Fri 02:29:31 PM 47.7803 -118.5140 101° East 415 478 15,200 151 Climbing Seattle Center
Fri 02:30:31 PM 47.7575 -118.3330 91° East 427 491 15,300 198 Climbing Seattle Center
Fri 02:31:32 PM 47.7550 -118.1450 90° East 447 514 15,600 100 Climbing Seattle Center
Fri 02:32:31 PM 47.7542 -117.9570 89° East 447 514 15,500 -252 Descending Seattle Center
Fri 02:33:31 PM 47.7553 -117.7690 90° East 447 514 15,100 -300 Descending Seattle Center
Fri 02:34:31 PM 47.7542 -117.5810 91° East 447 514 14,900 -99 Descending Seattle Center
Fri 02:35:32 PM 47.7525 -117.3930 90° East 447 514 14,900  Level Seattle Center
Fri 02:36:31 PM 47.7522 -117.1860 91° East 452 520 14,900 50 Level Seattle Center
Fri 02:37:32 PM 47.7500 -116.9880 92° East 464 534 15,000 99 Climbing Seattle Center
Fri 02:38:32 PM 47.7453 -116.7980 76° East 464 534 15,100 50 Climbing Seattle Center
Fri 02:39:31 PM 47.7739 -116.6200 331° Northwest 437 503 15,100 -100 Level Seattle Center
Fri 02:40:32 PM 47.8611 -116.6920 273° West 202 232 14,900 -100 Descending Seattle Center
Fri 02:41:31 PM 47.8681 -116.8800 276° West 232 267 14,900 101 Level Seattle Center
Fri 02:42:31 PM 47.8808 -117.0650 276° West 364 419 15,100  Climbing Seattle Center
Fri 02:43:32 PM 47.8931 -117.2500 275° West 411 473 14,900 -99 Descending Seattle Center
Fri 02:44:32 PM 47.9031 -117.4230 274° West 452 520 14,900 -50 Level Seattle Center
Fri 02:45:31 PM 47.9106 -117.6050 275° West 459 528 14,800 101 Descending Seattle Center
Fri 02:46:31 PM 47.9222 -117.7960 275° West 459 528 15,100 200 Climbing Seattle Center
Fri 02:47:31 PM 47.9336 -117.9850 275° West 459 528 15,200 50 Climbing Seattle Center
Fri 02:48:32 PM 47.9447 -118.1790 275° West 466 536 15,200  Level Seattle Center
Fri 02:49:31 PM 47.9556 -118.3710 274° West 466 536 15,200 101 Level Seattle Center
Fri 02:50:31 PM 47.9639 -118.5630 274° West 466 536 15,400 300 Climbing Seattle Center
Fri 02:51:31 PM 47.9719 -118.7540 274° West 466 536 15,800 -100 Climbing Seattle Center
Fri 02:52:31 PM 47.9817 -118.9490 278° West 471 542 15,200 -298 Descending Seattle Center
Fri 02:53:32 PM 47.9997 -119.1380 278° West 471 542 15,200 50 Level Seattle Center
Fri 02:54:32 PM 48.0172 -119.3300 276° West 471 542 15,300 303 Climbing Seattle Center
Fri 02:55:31 PM 48.0303 -119.5220 276° West 471 542 15,800 -101 Climbing Seattle Center
Fri 02:56:31 PM 48.0431 -119.7210 277° West 471 542 15,100 -450 Descending Seattle Center
Fri 02:57:31 PM 48.0594 -119.9160 280° West 476 548 14,900 500 Descending Seattle Center
Fri 02:58:31 PM 48.0819 -120.1080 279° West 481 554 16,100 350 Climbing Seattle Center
Fri 02:59:31 PM 48.1022 -120.3040 280° West 481 554 15,600 -400 Descending Seattle Center
Fri 03:00:31 PM 48.1242 -120.4970 280° West 481 554 15,300 -150 Descending Seattle Center
Fri 03:01:31 PM 48.1478 -120.6930 281° West 481 554 15,300 50 Level Seattle Center
Fri 03:02:32 PM 48.1731 -120.8920 279° West 481 554 15,400 -100 Climbing Seattle Center
Fri 03:03:31 PM 48.1958 -121.1070 273° West 486 559 15,100 -353 Descending Seattle Center
Fri 03:04:31 PM 48.2017 -121.3030 272° West 481 554 14,700 -250 Descending Seattle Center
Fri 03:05:31 PM 48.2072 -121.5060 272° West 481 554 14,600 50 Descending Seattle Center
Fri 03:06:32 PM 48.2106 -121.7080 266° West 486 559 14,800  Climbing Seattle Center
Fri 03:07:31 PM 48.2008 -121.9100 262° West 486 559 14,600  Descending Seattle Center
Fri 03:08:32 PM 48.1825 -122.1110 240° Southwest 486 559 14,800 50 Climbing Seattle Center
Fri 03:09:32 PM 48.1208 -122.2730 146° Southeast 456 525 14,700 -100 Descending Seattle Center
Fri 03:10:32 PM 48.0231 -122.1760 84° East 258 297 14,600 151 Descending Seattle Center
Fri 03:11:31 PM 48.0369 -121.9900 82° East 230 265 15,000 202 Climbing Seattle Center
Fri 03:12:31 PM 48.0528 -121.8080 81° East 339 390 15,000 550 Level Seattle Center
Fri 03:13:31 PM 48.0703 -121.6320 84° East 400 460 16,100 1,488 Climbing Seattle Center
Fri 03:14:32 PM 48.0833 -121.4430 93° East 430 495 18,000 2,083 Climbing Seattle Center
Fri 03:15:32 PM 48.0756 -121.2560 93° East 470 541 20,300 2,250 Climbing Seattle Center
Fri 03:16:32 PM 48.0675 -121.0480 92° East 488 562 22,500 9,429 Climbing Seattle Center
Fri 03:17:31 PM 48.0611 -120.8340 96° East 504 580 39,000 2,168 Climbing Seattle Center
Fri 03:18:31 PM 48.0464 -120.6200 94° East 515 593 26,800 -4,950 Descending Seattle Center
Fri 03:19:31 PM 48.0372 -120.4030 94° East 520 598 29,100 2,300 Climbing Seattle Center
Fri 03:20:31 PM 48.0278 -120.1860 94° East 520 598 31,400 2,400 Climbing Seattle Center
Fri 03:21:31 PM 48.0178 -119.9750 94° East 520 598 33,900 2,250 Climbing Seattle Center
Fri 03:22:31 PM 48.0078 -119.7670 95° East 515 593 35,900 1,950 Climbing Seattle Center
Fri 03:23:31 PM 47.9950 -119.5590 95° East 509 586 37,800 1,400 Climbing Seattle Center
Fri 03:24:31 PM 47.9819 -119.3550 95° East 498 573 38,700 1,000 Climbing Seattle Center
Fri 03:25:31 PM 47.9686 -119.1510 95° East 498 573 39,800 650 Climbing Seattle Center
Fri 03:26:31 PM 47.9569 -118.9500 95° East 498 573 40,000 100 Climbing Seattle Center
Fri 03:27:31 PM 47.9450 -118.7490 95° East 493 567 40,000  Level Seattle Center
Fri 03:28:31 PM 47.9325 -118.5510 96° East 493 567 40,000 -50 Level Seattle Center
Fri 03:29:31 PM 47.9181 -118.3600 95° East 482 555 39,900  Descending Seattle Center
Fri 03:30:31 PM 47.9072 -118.1680 94° East 470 541 40,000 149 Climbing Seattle Center
Fri 03:31:32 PM 47.8981 -117.9770 91° East 463 533 40,200 200 Climbing Seattle Center
Fri 03:32:31 PM 47.8950 -117.7790 92° East 463 533 40,400 101 Climbing Seattle Center
Fri 03:33:31 PM 47.8894 -117.5810 98° East 463 533 40,400 -200 Level Seattle Center
Fri 03:34:31 PM 47.8708 -117.3810 95° East 478 550 40,000 -198 Descending Seattle Center
Fri 03:35:32 PM 47.8581 -117.1710 96° East 478 550 40,000  Level Seattle Center
Fri 03:36:31 PM 47.8431 -116.9710 95° East 478 550 40,000 -50 Level Seattle Center
Fri 03:37:32 PM 47.8300 -116.7710 96° East 484 557 39,900  Descending Seattle Center
Fri 03:38:31 PM 47.8164 -116.5710 66° East 478 550 40,000 50 Climbing Seattle Center
Fri 03:39:31 PM 47.8639 -116.4140 346° North 411 473 40,000  Level Seattle Center
Fri 03:40:31 PM 47.9650 -116.4510 278° West 262 302 40,000  Level Seattle Center
Fri 03:41:31 PM 47.9822 -116.6260 266° West 248 285 40,000 -150 Level Seattle Center
Fri 03:42:31 PM 47.9744 -116.8120 268° West 348 400 39,700 -50 Descending Seattle Center
Fri 03:43:32 PM 47.9706 -116.9950 265° West 396 456 39,900 198 Climbing Seattle Center
Fri 03:44:32 PM 47.9603 -117.1820 273° West 439 505 40,100 50 Climbing Seattle Center
Fri 03:45:32 PM 47.9664 -117.3640 274° West 445 512 40,000 -50 Descending Seattle Center
Fri 03:46:31 PM 47.9736 -117.5280 274° West 445 512 40,000 -200 Level Seattle Center
Fri 03:47:32 PM 47.9811 -117.7070 275° West 440 506 39,600 -700 Descending Seattle Center
Fri 03:48:31 PM 47.9903 -117.8840 273° West 440 506 38,600 -1,311 Descending Seattle Center
Fri 03:49:31 PM 47.9969 -118.0510 274° West 424 488 37,000 -2,200 Descending Seattle Center
Fri 03:50:31 PM 48.0058 -118.2270 274° West 424 488 34,200 -2,500 Descending Seattle Center
Fri 03:51:31 PM 48.0142 -118.4030 274° West 424 488 32,000 -2,300 Descending Seattle Center
Fri 03:52:31 PM 48.0222 -118.5740 275° West 419 482 29,600 -3,174 Descending Seattle Center
Fri 03:53:32 PM 48.0322 -118.7440 274° West 419 482 25,600 -2,281 Descending Seattle Center
Fri 03:54:32 PM 48.0400 -118.9360 276° West 440 506 25,000 -353 Descending Seattle Center
Fri 03:55:31 PM 48.0536 -119.1310 275° West 465 535 24,900 -50 Descending Seattle Center
Fri 03:56:31 PM 48.0650 -119.3200 275° West 470 541 24,900  Level Seattle Center
Fri 03:57:31 PM 48.0758 -119.5090 275° West 470 541 24,900  Level Seattle Center
Fri 03:58:31 PM 48.0867 -119.6990 272° West 464 534 24,900 50 Level Seattle Center
Fri 03:59:32 PM 48.0908 -119.8820 272° West 452 520 25,000 50 Climbing Seattle Center
Fri 04:00:31 PM 48.0947 -120.0620 272° West 447 514 25,000  Level Seattle Center
Fri 04:01:31 PM 48.0983 -120.2080 274° West 442 509 25,000  Level Seattle Center
Fri 04:02:31 PM 48.1078 -120.4340 273° West 442 509 25,000  Level Seattle Center
Fri 04:03:31 PM 48.1150 -120.6210 276° West 448 516 25,000 -250 Level Seattle Center
Fri 04:04:31 PM 48.1281 -120.8110 338° Northwest 455 524 24,500 -850 Descending Seattle Center
Fri 04:05:31 PM 48.2294 -120.8720 60° Northeast 385 443 23,300 -1,785 Descending Seattle Center
Fri 04:06:32 PM 48.2847 -120.7260 104° East 236 272 20,900 -2,331 Descending Seattle Center
Fri 04:07:32 PM 48.2547 -120.5420 103° East 247 284 18,600 -3,479 Descending Seattle Center
Fri 04:08:31 PM 48.2286 -120.3680 101° East 360 414 14,000 -1,350 Descending Seattle Center
Fri 04:09:32 PM 48.2067 -120.1930 99° East 396 456 15,900 750 Climbing Seattle Center
Fri 04:10:31 PM 48.1864 -120.0030 97° East 434 499 15,500 -252 Descending Seattle Center
Fri 04:11:31 PM 48.1697 -119.8110 97° East 455 524 15,400 99 Descending Seattle Center
Fri 04:12:32 PM 48.1531 -119.6210 101° East 460 529 15,700 150 Climbing Seattle Center
Fri 04:13:31 PM 48.1278 -119.4320 101° East 466 536 15,700 50 Level Seattle Center
Fri 04:14:32 PM 48.1019 -119.2360 103° East 471 542 15,800  Climbing Seattle Center
Fri 04:15:31 PM 48.0719 -119.0350 103° East 471 542 15,700 50 Descending Seattle Center
Fri 04:16:32 PM 48.0414 -118.8400 106° East 484 557 15,900 50 Climbing Seattle Center
Fri 04:17:31 PM 48.0042 -118.6420 107° East 490 564 15,800  Descending Seattle Center
Fri 04:18:31 PM 47.9647 -118.4450 105° East 490 564 15,900 100 Climbing Seattle Center
Fri 04:19:31 PM 47.9269 -118.2420 103° East 495 570 16,000 100 Climbing Seattle Center
Fri 04:20:31 PM 47.8969 -118.0420 103° East 495 570 16,100 -150 Climbing Seattle Center
Fri 04:21:31 PM 47.8647 -117.8360 100° East 495 570 15,700 -250 Descending Seattle Center
Fri 04:22:31 PM 47.8403 -117.6290 101° East 501 577 15,600 50 Descending Seattle Center
Fri 04:23:32 PM 47.8136 -117.4240 99° East 525 604 15,800  Climbing Seattle Center
Fri 04:24:31 PM 47.7881 -117.1990 78° East 519 597 15,600 -100 Descending Seattle Center
Fri 04:25:32 PM 47.8131 -117.0220 326° Northwest 451 519 15,600  Level Seattle Center
Fri 04:26:32 PM 47.8961 -117.1070 272° West 174 200 15,600 -50 Level Seattle Center
Fri 04:27:31 PM 47.9006 -117.3050 272° West 247 284 15,500 -151 Descending Seattle Center
Fri 04:28:31 PM 47.9044 -117.4940 274° West 428 493 15,300 -200 Descending Seattle Center
Fri 04:29:31 PM 47.9142 -117.6910 274° West 459 528 15,100 -200 Descending Seattle Center
Fri 04:30:31 PM 47.9239 -117.8890 276° West 478 550 14,900 -100 Descending Seattle Center
Fri 04:31:31 PM 47.9372 -118.0870 275° West 483 556 14,900 -50 Level Seattle Center
Fri 04:32:31 PM 47.9481 -118.2690 275° West 467 537 14,800 -100 Descending Seattle Center
Fri 04:33:31 PM 47.9583 -118.4450 277° West 448 516 14,700  Descending Seattle Center
Fri 04:34:31 PM 47.9728 -118.6120 280° West 430 495 14,800  Climbing Seattle Center
Fri 04:35:31 PM 47.9953 -118.8010 279° West 438 504 14,700 298 Descending Seattle Center
Fri 04:36:32 PM 48.0153 -118.9920 278° West 462 532 15,400 250 Climbing Seattle Center
Fri 04:37:31 PM 48.0331 -119.1910 275° West 474 545 15,200 -200 Descending Seattle Center
Fri 04:38:32 PM 48.0444 -119.3890 277° West 480 552 15,000 50 Descending Seattle Center
Fri 04:39:32 PM 48.0594 -119.5840 277° West 480 552 15,300 -252 Climbing Seattle Center
Fri 04:40:31 PM 48.0764 -119.7890 277° West 480 552 14,500 -353 Descending Seattle Center
Fri 04:41:31 PM 48.0928 -119.9880 277° West 480 552 14,600 50 Climbing Seattle Center
Fri 04:42:31 PM 48.1089 -120.1860 278° West 480 552 14,600 -200 Level Seattle Center
Fri 04:43:31 PM 48.1247 -120.3600 271° West 460 529 14,200 -100 Descending Seattle Center
Fri 04:44:31 PM 48.1261 -120.5160 272° West 416 479 14,400 150 Climbing Seattle Center
Fri 04:45:31 PM 48.1292 -120.6680 271° West 383 441 14,500 50 Climbing Seattle Center
Fri 04:46:31 PM 48.1300 -120.8200 272° West 372 428 14,500  Level Seattle Center
Fri 04:47:31 PM 48.1347 -120.9910 270° West 372 428 14,500  Level Seattle Center
Fri 04:48:31 PM 48.1353 -121.1120 234° Southwest 372 428 14,500 -497 Level Seattle Center
Fri 04:50:32 PM 48.0117 -121.3630 222° Southwest 356 410 13,000 -824 Descending Seattle Center
Fri 04:51:55 PM 47.8972 -121.5140 224° Southwest 357 411 11,700 -900 Descending Seattle Center
Fri 04:52:32 PM 47.8633 -121.5630 223° Southwest 362 417 11,200 -787 Descending Seattle Center
Fri 04:52:56 PM 47.8292 -121.6110 220° Southwest 338 389 10,900 -712 Descending Seattle Center
Fri 04:53:31 PM 47.7953 -121.6530 224° Southwest 345 397 10,500 -885 Descending Seattle Center
Fri 04:53:57 PM 47.7592 -121.7040 218° Southwest 314 361 10,000 -1,100 Descending Seattle Center
Fri 04:54:31 PM 47.7336 -121.7340 224° Southwest 325 374 9,400 -1,574 Descending Seattle Center
Fri 04:54:58 PM 47.7017 -121.7790 218° Southwest 275 316 8,400 -1,700 Descending Seattle Center
Fri 04:55:31 PM 47.6783 -121.8060 215° Southwest 293 337 7,700 -1,770 Descending Seattle Center
Fri 04:55:59 PM 47.6467 -121.8390 210° Southwest 250 288 6,600 -1,900 Descending Seattle Center
Fri 04:56:31 PM 47.6233 -121.8590 217° Southwest 264 304 5,800 -1,574 Descending Seattle Center
Fri 04:57:00 PM 47.5914 -121.8950 212° Southwest 233 268 5,000 -787 Descending Seattle Center
Fri 04:57:32 PM 47.5683 -121.9160 216° Southwest 249 287 5,000  Level Seattle Center
Fri 04:58:00 PM 47.5386 -121.9480 214° Southwest 229 264 5,000 -102 Level Seattle Center
Fri 04:58:31 PM 47.5172 -121.9690 214° Southwest 244 281 4,900 -484 Descending Seattle Center
Fri 04:59:02 PM 47.4856 -122.0010 214° Southwest 229 264 4,500 -900 Descending Seattle Center
Fri 04:59:31 PM 47.4642 -122.0220 232° Southwest 244 281 4,000 -1,364 Descending Seattle Center
Fri 05:00:08 PM 47.4361 -122.0760 245° Southwest 225 259 3,000 -1,100 Descending Seattle Center
Fri 05:00:31 PM 47.4294 -122.0970 246° West 230 265 2,900 -436 Descending Seattle Center
Fri 05:01:03 PM 47.4139 -122.1490 262° West 212 244 2,600 -590 Descending Seattle Center
Fri 05:01:32 PM 47.4114 -122.1760 303° West 214 246 2,300 -689 Descending Seattle Center
Fri 05:02:04 PM 47.4292 -122.2170 329° Northwest 182 209 1,900 -610 Descending Seattle Center
Fri 05:02:31 PM 47.4436 -122.2300 326° Northwest 161 185 1,700 -581 Descending Seattle Center
Fri 05:03:06 PM 47.4658 -122.2520 339° North 155 178 1,300 -600 Descending Seattle Center
Fri 05:03:31 PM 47.4783 -122.2590 325° Northwest 147 169 1,100 -778 Descending Seattle Center
Fri 05:04:00 PM 47.4967 -122.2780 334° Northwest 136 157 600 -787 Descending Seattle Center
Fri 05:04:32 PM 47.5108 -122.2880 334° Northwest 136 157 300 -563 Descending Seattle Center

Login

Don't have an account? Register now (free) for customized features, flight alerts, and more!